Time;durP1;ratioP1;P1;durP2;ratioP2;P2;SDS_P1;SDS_P2;PMS_P1;PMS_P2;Temp;Humidity;BMP_temperature;BMP_pressure;BME280_temperature;BME280_humidity;BME280_pressure;Samples;Min_cycle;Max_cycle;Signal;HPM_P1;HPM_P2
2024/01/17 00:00:03;;;;;;;0.00;0.00;;;;;;;8.02;100.00;100198.63;10383672;28;20052;-80
2024/01/17 00:05:12;;;;;;;0.22;0.22;;;;;;;7.86;100.00;100182.88;10404888;28;20048;-81
2024/01/17 00:10:14;;;;;;;0.08;0.08;;;;;;;6.41;100.00;100189.06;10399222;28;20049;-82
2024/01/17 00:15:18;;;;;;;0.80;0.75;;;;;;;7.15;100.00;100186.13;10387373;28;20051;-82
2024/01/17 00:20:20;;;;;;;0.57;0.57;;;;;;;7.10;100.00;100177.44;10376398;28;20081;-81
2024/01/17 00:25:21;;;;;;;0.00;0.00;;;;;;;8.40;100.00;100165.34;10394269;28;20038;-81
2024/01/17 00:30:23;;;;;;;0.20;0.20;;;;;;;8.05;100.00;100167.94;10382789;28;20129;-81
2024/01/17 00:35:25;;;;;;;0.63;0.63;;;;;;;8.36;100.00;100156.69;10369041;28;20049;-81
2024/01/17 00:40:27;;;;;;;0.20;0.20;;;;;;;8.36;100.00;100151.56;10386347;28;20060;-81
2024/01/17 00:45:29;;;;;;;1.35;1.17;;;;;;;7.17;100.00;100148.63;10359991;28;20042;-80
2024/01/17 00:50:31;;;;;;;0.50;0.50;;;;;;;7.23;100.00;100128.28;10369225;28;20054;-81
2024/01/17 00:55:33;;;;;;;0.20;0.20;;;;;;;9.00;100.00;100124.69;10385857;28;20042;-80
2024/01/17 01:00:34;;;;;;;0.00;0.00;;;;;;;7.09;100.00;100119.34;10396835;28;20160;-80
2024/01/17 01:05:36;;;;;;;0.00;0.00;;;;;;;7.76;100.00;100101.44;10377894;28;20049;-80
2024/01/17 01:10:38;;;;;;;1.55;0.80;;;;;;;8.35;100.00;100107.91;10369850;28;20042;-80
2024/01/17 01:15:40;;;;;;;0.00;0.00;;;;;;;8.19;100.00;100071.63;10385691;28;20041;-81
2024/01/17 01:20:42;;;;;;;0.40;0.40;;;;;;;7.26;100.00;100087.34;10380023;28;20060;-81
2024/01/17 01:25:44;;;;;;;0.77;0.77;;;;;;;7.97;100.00;100079.69;10378423;28;20046;-81
2024/01/17 01:30:45;;;;;;;0.10;0.10;;;;;;;7.91;100.00;100072.69;10392935;28;20041;-81
2024/01/17 01:35:48;;;;;;;0.00;0.00;;;;;;;8.05;100.00;100066.19;10388900;28;20041;-81
2024/01/17 01:40:50;;;;;;;0.00;0.00;;;;;;;7.44;100.00;100070.72;10376456;28;20060;-81
2024/01/17 01:46:16;;;;;;;0.00;0.00;;;;;;;7.70;100.00;100042.31;10352293;28;20049;-81
2024/01/17 01:51:19;;;;;;;0.20;0.20;;;;;;;7.39;100.00;100027.03;10377593;28;20092;-81
2024/01/17 01:56:26;;;;;;;0.00;0.00;;;;;;;7.86;100.00;100034.13;10377778;28;20041;-82
2024/01/17 02:01:29;;;;;;;0.00;0.00;;;;;;;7.47;100.00;100019.56;10370018;28;20049;-81
2024/01/17 02:06:33;;;;;;;0.30;0.30;;;;;;;6.42;100.00;100016.81;10374669;28;20049;-80
2024/01/17 02:11:36;;;;;;;1.30;1.00;;;;;;;7.26;100.00;100004.50;10377759;28;20045;-81
2024/01/17 02:16:38;;;;;;;0.00;0.00;;;;;;;8.13;100.00;99997.09;10358446;28;20054;-81
2024/01/17 02:21:40;;;;;;;0.00;0.00;;;;;;;7.65;100.00;99987.47;10369482;28;20052;-80
2024/01/17 02:26:41;;;;;;;0.25;0.25;;;;;;;6.44;100.00;99987.88;10361954;28;20141;-80
2024/01/17 02:31:44;;;;;;;0.63;0.63;;;;;;;6.67;100.00;99970.56;10393766;28;20489;-80
2024/01/17 02:36:46;;;;;;;0.43;0.43;;;;;;;5.99;100.00;99955.94;10377477;28;20096;-81
2024/01/17 02:41:47;;;;;;;0.25;0.25;;;;;;;6.94;100.00;99949.09;10389125;28;20046;-80
2024/01/17 02:46:49;;;;;;;0.13;0.13;;;;;;;6.84;100.00;99944.56;10375749;28;20555;-80
2024/01/17 02:51:51;;;;;;;0.10;0.10;;;;;;;6.59;100.00;99950.72;10382580;28;20067;-80
2024/01/17 02:56:53;;;;;;;0.57;0.57;;;;;;;7.81;100.00;99940.84;10370656;28;20136;-82
2024/01/17 03:01:54;;;;;;;0.00;0.00;;;;;;;6.47;100.00;99928.22;10394275;28;20489;-81
2024/01/17 03:06:56;;;;;;;0.00;0.00;;;;;;;6.29;100.00;99914.09;10359362;28;20137;-80
2024/01/17 03:11:58;;;;;;;0.28;0.28;;;;;;;7.56;100.00;99899.28;10389445;28;20073;-80
2024/01/17 03:17:00;;;;;;;0.00;0.00;;;;;;;6.34;100.00;99897.22;10384357;28;20056;-81
2024/01/17 03:22:02;;;;;;;0.10;0.10;;;;;;;6.53;100.00;99897.69;10350011;28;20116;-80
2024/01/17 03:27:04;;;;;;;0.00;0.00;;;;;;;5.62;100.00;99892.56;10401106;28;20547;-81
2024/01/17 03:32:06;;;;;;;0.00;0.00;;;;;;;6.79;100.00;99877.88;10377797;28;20052;-80
2024/01/17 03:37:07;;;;;;;0.00;0.00;;;;;;;5.46;100.00;99875.94;10375646;28;20049;-81
2024/01/17 03:42:15;;;;;;;0.00;0.00;;;;;;;5.81;100.00;99869.28;10386822;28;20077;-81
2024/01/17 03:47:17;;;;;;;0.00;0.00;;;;;;;7.25;100.00;99855.06;10394364;28;20038;-81
2024/01/17 03:52:19;;;;;;;0.00;0.00;;;;;;;7.27;100.00;99848.25;10393739;28;20057;-80
2024/01/17 03:57:21;;;;;;;0.00;0.00;;;;;;;7.06;100.00;99840.97;10416480;28;20045;-81
2024/01/17 04:02:22;;;;;;;0.13;0.13;;;;;;;6.27;100.00;99827.94;10382647;28;20050;-80
2024/01/17 04:07:24;;;;;;;0.10;0.10;;;;;;;7.26;100.00;99815.78;10384117;28;20104;-81
2024/01/17 04:12:26;;;;;;;0.10;0.10;;;;;;;5.47;100.00;99812.09;10389327;28;20051;-80
2024/01/17 04:17:28;;;;;;;0.00;0.00;;;;;;;6.24;100.00;99808.25;10364058;28;20068;-80
2024/01/17 04:22:31;;;;;;;0.00;0.00;;;;;;;6.69;100.00;99788.00;10411659;28;20073;-81
2024/01/17 04:27:33;;;;;;;0.65;0.65;;;;;;;5.62;100.00;99785.25;10387849;28;20045;-81
2024/01/17 04:32:35;;;;;;;0.00;0.00;;;;;;;7.14;100.00;99761.72;10381658;28;20399;-81
2024/01/17 04:37:37;;;;;;;0.10;0.10;;;;;;;6.86;100.00;99750.88;10366720;28;20043;-80
2024/01/17 04:42:39;;;;;;;0.00;0.00;;;;;;;7.12;100.00;99748.00;10369078;28;20132;-81
2024/01/17 04:47:40;;;;;;;0.00;0.00;;;;;;;6.59;100.00;99733.19;10396052;28;20145;-81
2024/01/17 04:52:42;;;;;;;0.00;0.00;;;;;;;6.71;100.00;99719.81;10373488;28;20077;-82
2024/01/17 04:57:44;;;;;;;0.03;0.03;;;;;;;6.61;100.00;99711.91;10400014;28;20232;-81
2024/01/17 05:02:46;;;;;;;0.00;0.00;;;;;;;8.00;100.00;99702.72;10388626;28;20145;-81
2024/01/17 05:07:47;;;;;;;0.00;0.00;;;;;;;8.14;100.00;99696.09;10369236;28;20053;-81
2024/01/17 05:12:50;;;;;;;0.95;0.90;;;;;;;7.46;100.00;99680.38;10397521;28;20054;-80
2024/01/17 05:17:51;;;;;;;0.00;0.00;;;;;;;8.26;100.00;99665.50;10378955;28;20041;-81
2024/01/17 05:22:53;;;;;;;0.00;0.00;;;;;;;7.86;100.00;99657.16;10388855;28;20053;-81
2024/01/17 05:27:55;;;;;;;0.00;0.00;;;;;;;6.99;100.00;99649.59;10369564;28;20042;-81
2024/01/17 05:32:57;;;;;;;0.10;0.10;;;;;;;7.32;100.00;99651.06;10420174;28;20128;-81
2024/01/17 05:37:59;;;;;;;0.15;0.15;;;;;;;7.11;100.00;99641.28;10363725;28;20053;-81
2024/01/17 05:43:01;;;;;;;0.00;0.00;;;;;;;7.78;100.00;99631.41;10377604;28;20572;-81
2024/01/17 05:48:03;;;;;;;0.00;0.00;;;;;;;8.88;100.00;99609.03;10373948;28;20039;-81
2024/01/17 05:53:05;;;;;;;0.52;0.52;;;;;;;8.39;100.00;99598.94;10380234;28;20452;-81
2024/01/17 05:58:07;;;;;;;0.00;0.00;;;;;;;7.77;100.00;99598.91;10379823;28;20046;-79
2024/01/17 06:03:08;;;;;;;0.10;0.10;;;;;;;8.10;100.00;99601.97;10377553;28;20054;-82
2024/01/17 06:08:10;;;;;;;2.05;1.02;;;;;;;8.64;100.00;99589.03;10400646;28;20048;-82
2024/01/17 06:13:12;;;;;;;0.20;0.20;;;;;;;7.99;100.00;99588.13;10375763;28;20408;-81
2024/01/17 06:18:14;;;;;;;0.00;0.00;;;;;;;8.86;100.00;99580.75;10396360;28;20499;-81
2024/01/17 06:23:15;;;;;;;0.00;0.00;;;;;;;7.67;100.00;99560.28;10404221;28;20049;-82
2024/01/17 06:28:18;;;;;;;0.05;0.05;;;;;;;7.97;100.00;99544.47;10394487;28;20052;-82
2024/01/17 06:33:20;;;;;;;0.20;0.20;;;;;;;8.06;100.00;99543.78;10380960;28;20093;-81
2024/01/17 06:38:22;;;;;;;0.43;0.43;;;;;;;8.37;100.00;99544.19;10381698;28;20141;-81
2024/01/17 06:43:24;;;;;;;0.10;0.10;;;;;;;8.57;100.00;99537.63;10367539;28;20088;-81
2024/01/17 06:48:26;;;;;;;0.00;0.00;;;;;;;8.79;100.00;99530.16;10406168;28;20077;-80
2024/01/17 06:53:28;;;;;;;0.00;0.00;;;;;;;8.96;100.00;99525.19;10406095;28;20046;-80
2024/01/17 06:58:30;;;;;;;0.57;0.57;;;;;;;8.48;100.00;99527.25;10404267;28;20099;-81
2024/01/17 07:03:31;;;;;;;0.73;0.73;;;;;;;8.65;100.00;99519.72;10381782;28;20503;-81
2024/01/17 07:08:33;;;;;;;0.10;0.10;;;;;;;8.78;100.00;99517.31;10389551;28;20041;-81
2024/01/17 07:13:35;;;;;;;0.25;0.25;;;;;;;10.00;100.00;99502.91;10363934;28;20050;-81
2024/01/17 07:18:37;;;;;;;0.00;0.00;;;;;;;8.49;100.00;99495.59;10364593;28;20046;-81
2024/01/17 07:23:39;;;;;;;0.30;0.30;;;;;;;9.03;100.00;99487.59;10372959;28;20069;-80
2024/01/17 07:28:40;;;;;;;0.00;0.00;;;;;;;7.72;100.00;99482.59;10376349;28;20509;-81
2024/01/17 07:33:42;;;;;;;0.10;0.10;;;;;;;8.52;100.00;99476.81;10375143;28;20054;-82
2024/01/17 07:38:44;;;;;;;0.00;0.00;;;;;;;8.13;100.00;99460.03;10374903;28;20069;-81
2024/01/17 07:43:46;;;;;;;0.57;0.57;;;;;;;7.94;100.00;99463.22;10375935;28;20046;-80
2024/01/17 07:48:48;;;;;;;0.00;0.00;;;;;;;8.61;100.00;99461.50;10383429;28;20066;-81
2024/01/17 07:53:50;;;;;;;2.45;1.08;;;;;;;8.46;100.00;99451.88;10390109;28;20052;-81
2024/01/17 07:58:51;;;;;;;0.30;0.30;;;;;;;8.16;100.00;99432.72;10358166;28;20041;-82
2024/01/17 08:03:53;;;;;;;0.00;0.00;;;;;;;7.92;100.00;99429.03;10373457;28;20088;-81
2024/01/17 08:08:56;;;;;;;0.00;0.00;;;;;;;8.69;100.00;99417.91;10389372;28;20042;-82
2024/01/17 08:13:57;;;;;;;0.13;0.13;;;;;;;8.84;100.00;99412.94;10391506;28;20041;-81
2024/01/17 08:18:59;;;;;;;0.00;0.00;;;;;;;9.43;100.00;99397.97;10347547;28;20050;-81
2024/01/17 08:24:01;;;;;;;0.00;0.00;;;;;;;8.40;100.00;99387.66;10367844;28;20132;-82
2024/01/17 08:29:03;;;;;;;0.17;0.17;;;;;;;8.48;100.00;99365.53;10369062;28;20077;-81
2024/01/17 08:34:04;;;;;;;0.00;0.00;;;;;;;7.46;100.00;99354.09;10369468;28;20058;-81
2024/01/17 08:39:06;;;;;;;0.35;0.35;;;;;;;8.61;100.00;99352.81;10369745;28;20128;-81
2024/01/17 08:44:08;;;;;;;1.65;1.55;;;;;;;7.97;100.00;99353.84;10383905;28;20037;-81
2024/01/17 08:49:10;;;;;;;0.95;0.90;;;;;;;8.50;100.00;99338.19;10356590;28;20057;-81
2024/01/17 08:54:12;;;;;;;0.75;0.75;;;;;;;7.73;100.00;99327.94;10382866;28;20053;-81
2024/01/17 08:59:14;;;;;;;0.10;0.10;;;;;;;7.92;100.00;99326.47;10374344;28;20049;-81
2024/01/17 09:04:16;;;;;;;0.10;0.10;;;;;;;9.10;100.00;99317.25;10380802;28;20053;-81
2024/01/17 09:09:17;;;;;;;0.10;0.10;;;;;;;9.12;100.00;99315.53;10379844;28;20145;-80
2024/01/17 09:14:21;;;;;;;0.10;0.10;;;;;;;9.45;100.00;99316.56;10362293;28;20081;-81
2024/01/17 09:19:23;;;;;;;0.30;0.30;;;;;;;7.50;100.00;99317.38;10350741;28;20042;-81
2024/01/17 09:24:25;;;;;;;0.30;0.30;;;;;;;9.11;100.00;99308.69;10372639;28;20100;-81
2024/01/17 09:29:29;;;;;;;0.38;0.15;;;;;;;10.62;100.00;99312.59;10363161;28;20590;-82
2024/01/17 09:34:36;;;;;;;1.08;0.85;;;;;;;9.88;100.00;99297.00;10384127;28;20045;-81
2024/01/17 09:39:38;;;;;;;0.38;0.32;;;;;;;9.14;100.00;99288.13;10414514;28;20459;-82
2024/01/17 09:44:43;;;;;;;0.20;0.20;;;;;;;8.30;100.00;99284.06;10372677;28;20054;-80
2024/01/17 09:49:45;;;;;;;0.47;0.30;;;;;;;8.73;100.00;99270.78;10415198;28;20064;-80
2024/01/17 09:54:50;;;;;;;1.23;1.13;;;;;;;10.31;100.00;99273.97;10394072;28;20467;-81
2024/01/17 09:59:58;;;;;;;1.38;1.27;;;;;;;9.88;100.00;99272.16;10401553;28;20061;-82
2024/01/17 10:05:04;;;;;;;1.33;1.20;;;;;;;9.75;100.00;99266.13;10396409;28;20042;-81
2024/01/17 10:10:06;;;;;;;0.00;0.00;;;;;;;9.39;100.00;99261.69;10388897;28;20045;-82
2024/01/17 10:15:13;;;;;;;0.50;0.50;;;;;;;9.91;100.00;99255.88;10404655;28;20472;-82
2024/01/17 10:20:16;;;;;;;0.00;0.00;;;;;;;10.10;100.00;99242.19;10376256;28;20100;-82
2024/01/17 10:25:18;;;;;;;0.38;0.35;;;;;;;10.24;100.00;99226.75;10387692;28;20042;-82
2024/01/17 10:30:20;;;;;;;0.88;0.88;;;;;;;10.38;100.00;99223.34;10403287;28;20057;-82
2024/01/17 10:35:25;;;;;;;0.20;0.20;;;;;;;8.84;100.00;99209.22;10417838;28;20447;-83
2024/01/17 10:40:27;;;;;;;1.05;0.98;;;;;;;10.43;100.00;99204.47;10391758;28;20145;-82
2024/01/17 10:45:34;;;;;;;0.20;0.20;;;;;;;9.68;100.00;99202.69;10380406;28;20092;-83
2024/01/17 10:50:36;;;;;;;0.85;0.85;;;;;;;10.22;100.00;99183.88;10390087;28;20552;-82
2024/01/17 10:55:39;;;;;;;0.20;0.20;;;;;;;11.52;98.46;99178.34;10385307;28;20046;-82
2024/01/17 11:00:44;;;;;;;0.38;0.38;;;;;;;11.10;97.51;99169.09;10366179;28;20048;-83
2024/01/17 11:05:50;;;;;;;0.35;0.35;;;;;;;10.08;100.00;99161.56;10386986;28;20420;-82
2024/01/17 11:10:53;;;;;;;0.00;0.00;;;;;;;11.02;99.53;99152.81;10384632;28;20141;-83
2024/01/17 11:15:59;;;;;;;1.65;1.55;;;;;;;9.99;100.00;99144.41;10386276;28;20037;-83
2024/01/17 11:21:03;;;;;;;0.10;0.10;;;;;;;9.88;100.00;99147.81;10389955;28;20046;-83
2024/01/17 11:26:14;;;;;;;0.10;0.10;;;;;;;10.66;99.54;99134.06;10363484;28;20050;-83
2024/01/17 11:31:19;;;;;;;5.88;3.92;;;;;;;9.77;97.70;99130.69;10382991;28;20124;-83
2024/01/17 11:36:41;;;;;;;9.07;4.75;;;;;;;11.22;96.99;99118.34;10405022;28;20037;-82
2024/01/17 11:41:44;;;;;;;1.98;1.45;;;;;;;11.77;94.64;99113.69;10408036;28;20069;-83
2024/01/17 11:46:51;;;;;;;0.30;0.30;;;;;;;11.33;94.53;99098.53;10367979;28;20046;-83
2024/01/17 11:51:53;;;;;;;0.13;0.13;;;;;;;10.35;96.08;99084.34;10384837;28;20050;-84
2024/01/17 11:56:56;;;;;;;0.22;0.22;;;;;;;9.69;98.01;99076.66;10393511;28;20042;-83
2024/01/17 12:01:58;;;;;;;0.20;0.13;;;;;;;11.02;97.73;99080.66;10354434;28;20046;-84
2024/01/17 12:07:00;;;;;;;1.45;1.35;;;;;;;13.57;92.10;99059.13;10378099;28;20119;-83
2024/01/17 12:12:02;;;;;;;0.17;0.17;;;;;;;11.55;96.13;99049.38;10429991;28;20189;-83
2024/01/17 12:17:04;;;;;;;0.38;0.38;;;;;;;9.62;96.41;99050.97;10384766;28;20121;-83
2024/01/17 12:22:08;;;;;;;0.00;0.00;;;;;;;11.53;95.14;99025.31;10387228;28;20077;-83
2024/01/17 12:27:11;;;;;;;0.15;0.15;;;;;;;11.87;94.42;99019.88;10385775;28;20077;-84
2024/01/17 12:32:14;;;;;;;0.08;0.08;;;;;;;10.15;98.16;99019.19;10336489;28;20046;-83
2024/01/17 12:37:16;;;;;;;0.47;0.47;;;;;;;12.44;92.40;99006.34;10371576;28;20472;-84
2024/01/17 12:42:18;;;;;;;0.10;0.10;;;;;;;12.81;92.23;98985.22;10389090;28;20121;-83
2024/01/17 12:47:21;;;;;;;0.65;0.57;;;;;;;12.29;90.02;98985.88;10385932;28;20045;-83
2024/01/17 12:52:23;;;;;;;0.00;0.00;;;;;;;13.52;88.46;98961.75;10388850;28;20046;-84
2024/01/17 12:57:25;;;;;;;0.57;0.57;;;;;;;11.51;91.29;98960.88;10403305;28;20056;-84
2024/01/17 13:02:26;;;;;;;0.10;0.10;;;;;;;13.36;89.94;98955.97;10397627;28;20411;-84
2024/01/17 13:07:28;;;;;;;0.00;0.00;;;;;;;13.69;86.78;98948.50;10369875;28;20049;-84
2024/01/17 13:12:30;;;;;;;0.63;0.55;;;;;;;13.49;86.14;98947.13;10375028;28;20054;-84
2024/01/17 13:17:32;;;;;;;0.10;0.10;;;;;;;13.51;86.34;98935.03;10368557;28;20045;-83
2024/01/17 13:22:33;;;;;;;0.10;0.10;;;;;;;13.15;86.48;98945.06;10412617;28;20080;-84
2024/01/17 13:27:36;;;;;;;0.10;0.10;;;;;;;13.36;87.52;98941.28;10347238;28;20057;-83
2024/01/17 13:32:38;;;;;;;0.20;0.20;;;;;;;12.96;87.40;98935.03;10365381;28;20072;-83
2024/01/17 13:37:41;;;;;;;0.00;0.00;;;;;;;13.81;84.65;98937.94;10370490;28;20122;-84
2024/01/17 13:42:43;;;;;;;0.35;0.35;;;;;;;12.92;85.44;98932.53;10374651;28;20050;-83
2024/01/17 13:47:44;;;;;;;0.60;0.47;;;;;;;14.11;83.32;98930.47;10388301;28;20444;-84
2024/01/17 13:52:51;;;;;;;0.10;0.10;;;;;;;13.46;83.74;98929.06;10385441;28;20076;-83
2024/01/17 13:57:53;;;;;;;0.10;0.10;;;;;;;12.37;87.26;98922.97;10379701;28;20069;-84
2024/01/17 14:02:58;;;;;;;0.00;0.00;;;;;;;12.31;87.13;98923.03;10401428;28;20046;-83
2024/01/17 14:08:00;;;;;;;0.00;0.00;;;;;;;13.00;87.28;98910.84;10372442;28;20046;-84
2024/01/17 14:13:02;;;;;;;0.00;0.00;;;;;;;12.69;84.96;98910.47;10398489;28;20485;-83
2024/01/17 14:18:05;;;;;;;0.00;0.00;;;;;;;14.26;83.79;98904.22;10396868;28;20411;-83
2024/01/17 14:23:07;;;;;;;0.00;0.00;;;;;;;13.27;84.54;98908.69;10374042;28;20492;-84
2024/01/17 14:28:10;;;;;;;0.08;0.08;;;;;;;12.01;87.19;98904.50;10373238;28;20132;-83
2024/01/17 14:33:12;;;;;;;0.10;0.10;;;;;;;13.22;84.93;98896.72;10382263;28;20050;-84
2024/01/17 14:38:14;;;;;;;0.00;0.00;;;;;;;13.57;84.06;98893.53;10405729;28;20080;-83
2024/01/17 14:43:16;;;;;;;0.00;0.00;;;;;;;12.33;83.80;98905.78;10416409;28;20060;-82
2024/01/17 14:48:18;;;;;;;0.00;0.00;;;;;;;13.36;82.22;98893.91;10402011;28;20091;-84
2024/01/17 14:53:20;;;;;;;0.05;0.05;;;;;;;13.29;83.84;98891.38;10387613;28;20073;-84
2024/01/17 14:58:22;;;;;;;0.35;0.22;;;;;;;13.04;83.09;98880.63;10410102;28;20117;-83
2024/01/17 15:03:23;;;;;;;0.00;0.00;;;;;;;11.72;84.86;98900.50;10384580;28;20485;-83
2024/01/17 15:08:26;;;;;;;0.13;0.13;;;;;;;12.90;85.34;98886.03;10382217;28;20084;-83
2024/01/17 15:13:27;;;;;;;0.55;0.25;;;;;;;10.41;89.79;98880.97;10412447;28;20052;-83
2024/01/17 15:18:29;;;;;;;0.00;0.00;;;;;;;11.50;87.25;98878.38;10379666;28;20141;-83
2024/01/17 15:23:31;;;;;;;0.00;0.00;;;;;;;12.56;88.21;98857.28;10397944;28;20045;-83
2024/01/17 15:28:33;;;;;;;0.47;0.47;;;;;;;12.80;88.66;98861.19;10380520;28;20118;-83
2024/01/17 15:33:35;;;;;;;0.80;0.65;;;;;;;11.69;89.31;98859.25;10400909;28;20490;-83
2024/01/17 15:38:44;;;;;;;0.75;0.73;;;;;;;9.44;95.74;98870.16;10388088;28;20046;-83
2024/01/17 15:43:46;;;;;;;0.10;0.10;;;;;;;10.26;95.71;98861.28;10376535;28;20462;-82
2024/01/17 15:48:48;;;;;;;1.35;0.85;;;;;;;8.81;99.14;98871.09;10385168;28;20041;-83
2024/01/17 15:53:50;;;;;;;0.52;0.40;;;;;;;9.80;97.07;98865.78;10383545;28;20077;-82
2024/01/17 15:58:51;;;;;;;0.20;0.20;;;;;;;9.44;99.51;98875.31;10380134;28;20034;-82
2024/01/17 16:03:54;;;;;;;0.10;0.10;;;;;;;9.12;98.98;98878.78;10389065;28;20124;-82
2024/01/17 16:08:57;;;;;;;0.40;0.40;;;;;;;9.91;98.69;98870.03;10369898;28;20069;-82
2024/01/17 16:13:59;;;;;;;0.88;0.63;;;;;;;9.64;99.94;98874.44;10389490;28;20046;-82
2024/01/17 16:19:01;;;;;;;0.65;0.57;;;;;;;10.67;97.14;98862.78;10377392;28;20125;-82
2024/01/17 16:24:03;;;;;;;0.10;0.10;;;;;;;9.65;96.97;98884.69;10388038;28;20056;-80
2024/01/17 16:29:06;;;;;;;0.00;0.00;;;;;;;9.11;99.69;98882.22;10381450;28;20443;-81
2024/01/17 16:34:08;;;;;;;0.57;0.57;;;;;;;9.02;100.00;98882.22;10367214;28;20124;-80
2024/01/17 16:39:12;;;;;;;0.00;0.00;;;;;;;8.62;100.00;98877.06;10383432;28;20120;-80
2024/01/17 16:44:14;;;;;;;1.95;1.85;;;;;;;9.47;100.00;98865.03;10367671;28;20048;-80
2024/01/17 16:49:16;;;;;;;0.68;0.68;;;;;;;9.65;100.00;98878.69;10382587;28;20049;-80
2024/01/17 16:54:18;;;;;;;0.80;0.80;;;;;;;8.69;100.00;98878.78;10366065;28;20058;-82
2024/01/17 16:59:20;;;;;;;0.10;0.10;;;;;;;9.45;100.00;98882.16;10395127;28;20050;-80
2024/01/17 17:04:21;;;;;;;0.25;0.25;;;;;;;9.75;100.00;98884.69;10366279;28;20041;-80
2024/01/17 17:09:23;;;;;;;1.90;1.45;;;;;;;9.61;100.00;98900.97;10365714;28;20069;-81
2024/01/17 17:14:25;;;;;;;0.20;0.20;;;;;;;9.05;100.00;98892.47;10385149;28;20057;-81
2024/01/17 17:19:27;;;;;;;0.13;0.13;;;;;;;8.86;100.00;98897.63;10378964;28;20050;-81
2024/01/17 17:24:28;;;;;;;0.15;0.15;;;;;;;9.34;100.00;98891.63;10366309;28;20081;-80
2024/01/17 17:29:31;;;;;;;0.50;0.50;;;;;;;9.47;100.00;98893.31;10381756;28;20060;-80
2024/01/17 17:34:33;;;;;;;0.43;0.43;;;;;;;9.18;100.00;98889.06;10365746;28;20050;-81
2024/01/17 17:39:38;;;;;;;0.25;0.25;;;;;;;9.31;100.00;98901.91;10373009;28;20061;-80
2024/01/17 17:44:39;;;;;;;0.00;0.00;;;;;;;8.51;100.00;98889.88;10372424;28;20438;-81
2024/01/17 17:49:41;;;;;;;2.55;0.70;;;;;;;8.30;100.00;98911.19;10410077;28;20053;-81
2024/01/17 17:54:44;;;;;;;0.52;0.50;;;;;;;9.06;100.00;98901.91;10364597;28;20049;-81
2024/01/17 17:59:46;;;;;;;0.15;0.15;;;;;;;8.95;100.00;98906.19;10399705;28;20412;-81
2024/01/17 18:04:48;;;;;;;3.78;0.70;;;;;;;9.25;100.00;98907.03;10389865;28;20156;-80
2024/01/17 18:09:50;;;;;;;0.65;0.65;;;;;;;9.17;100.00;98902.78;10427879;28;20046;-81
2024/01/17 18:14:52;;;;;;;0.32;0.32;;;;;;;9.24;100.00;98924.16;10428665;28;20050;-80
2024/01/17 18:19:53;;;;;;;1.02;0.98;;;;;;;9.81;100.00;98928.38;10399579;28;20049;-81
2024/01/17 18:24:55;;;;;;;0.00;0.00;;;;;;;10.23;100.00;98928.22;10417502;28;20042;-80
2024/01/17 18:29:57;;;;;;;0.22;0.22;;;;;;;11.90;97.80;98932.09;10413341;28;20140;-80
2024/01/17 18:34:59;;;;;;;0.17;0.17;;;;;;;10.85;99.54;98927.88;10386386;28;20061;-80
2024/01/17 18:40:04;;;;;;;0.45;0.20;;;;;;;9.48;100.00;98928.44;10401795;28;20596;-80
2024/01/17 18:45:06;;;;;;;0.20;0.20;;;;;;;10.53;99.64;98926.38;10397361;28;20049;-81
2024/01/17 18:50:08;;;;;;;0.70;0.65;;;;;;;11.73;95.62;98946.03;10385851;28;20042;-79
2024/01/17 18:55:10;;;;;;;0.93;0.90;;;;;;;10.72;96.56;98956.31;10402078;28;20077;-80
2024/01/17 19:00:12;;;;;;;0.15;0.15;;;;;;;9.35;100.00;98957.56;10391641;28;20481;-80
2024/01/17 19:05:14;;;;;;;0.00;0.00;;;;;;;9.67;100.00;98956.69;10375219;28;20043;-80
2024/01/17 19:10:16;;;;;;;0.00;0.00;;;;;;;9.54;100.00;98973.81;10381345;28;20049;-80
2024/01/17 19:15:18;;;;;;;0.30;0.30;;;;;;;9.01;100.00;98972.97;10377502;28;20054;-80
2024/01/17 19:20:20;;;;;;;0.10;0.10;;;;;;;9.34;100.00;98977.28;10351157;28;20046;-80
2024/01/17 19:25:24;;;;;;;0.05;0.05;;;;;;;9.56;100.00;98996.97;10382675;28;20489;-80
2024/01/17 19:30:25;;;;;;;0.00;0.00;;;;;;;10.08;98.98;98996.03;10381793;28;20104;-81
2024/01/17 19:35:27;;;;;;;1.10;0.95;;;;;;;10.73;98.52;98996.66;10368657;28;20042;-81
2024/01/17 19:40:30;;;;;;;0.05;0.05;;;;;;;11.41;97.03;99009.09;10385288;28;20520;-80
2024/01/17 19:45:33;;;;;;;0.00;0.00;;;;;;;11.83;95.20;99015.59;10363542;28;20080;-80
2024/01/17 19:50:35;;;;;;;0.28;0.28;;;;;;;11.99;94.34;99024.94;10380832;28;20153;-81
2024/01/17 19:55:37;;;;;;;0.00;0.00;;;;;;;11.93;93.96;99019.81;10341391;28;20463;-80
2024/01/17 20:00:39;;;;;;;0.03;0.03;;;;;;;10.26;95.60;99026.00;10391171;28;20124;-80
2024/01/17 20:05:41;;;;;;;0.00;0.00;;;;;;;9.60;100.00;99029.53;10381470;28;20046;-81
2024/01/17 20:10:42;;;;;;;0.00;0.00;;;;;;;9.59;100.00;99032.97;10386456;28;20030;-80
2024/01/17 20:15:44;;;;;;;0.15;0.15;;;;;;;11.78;94.18;99040.59;10392006;28;20046;-80
2024/01/17 20:20:46;;;;;;;0.13;0.13;;;;;;;11.77;97.59;99051.78;10389934;28;20051;-80
2024/01/17 20:25:48;;;;;;;2.00;0.60;;;;;;;13.95;89.31;99056.75;10362256;28;20394;-80
2024/01/17 20:30:49;;;;;;;0.05;0.05;;;;;;;12.73;91.22;99069.75;10386072;28;20068;-80
2024/01/17 20:35:53;;;;;;;0.00;0.00;;;;;;;13.24;89.81;99076.81;10379962;28;20056;-80
2024/01/17 20:40:54;;;;;;;0.00;0.00;;;;;;;13.82;88.64;99063.88;10363442;28;20578;-80
2024/01/17 20:45:56;;;;;;;0.00;0.00;;;;;;;14.25;87.20;99086.44;10378477;28;20485;-80
2024/01/17 20:50:58;;;;;;;0.00;0.00;;;;;;;14.16;85.50;99081.41;10354859;28;20045;-80
2024/01/17 20:56:01;;;;;;;0.22;0.22;;;;;;;12.21;89.49;99097.00;10371707;28;20057;-80
2024/01/17 21:01:03;;;;;;;0.10;0.10;;;;;;;12.38;87.16;99115.78;10372717;28;20056;-79
2024/01/17 21:06:05;;;;;;;0.05;0.05;;;;;;;11.72;93.63;99109.44;10371754;28;20120;-79
2024/01/17 21:11:07;;;;;;;0.63;0.63;;;;;;;13.06;88.97;99113.28;10394792;28;20147;-80
2024/01/17 21:16:09;;;;;;;0.00;0.00;;;;;;;12.35;90.05;99126.13;10380047;28;20145;-79
2024/01/17 21:21:11;;;;;;;0.88;0.85;;;;;;;13.29;88.25;99133.66;10395693;28;20058;-80
2024/01/17 21:26:17;;;;;;;0.00;0.00;;;;;;;13.58;86.16;99125.50;10379251;28;20508;-79
2024/01/17 21:31:20;;;;;;;0.63;0.30;;;;;;;12.97;88.88;99140.94;10402857;28;20046;-79
2024/01/17 21:36:23;;;;;;;0.25;0.25;;;;;;;14.36;86.20;99137.19;10395993;28;20052;-79
2024/01/17 21:41:28;;;;;;;0.00;0.00;;;;;;;14.24;84.91;99133.94;10393008;28;20085;-79
2024/01/17 21:46:30;;;;;;;0.00;0.00;;;;;;;13.51;86.04;99147.19;10358144;28;20137;-80
2024/01/17 21:51:34;;;;;;;0.32;0.32;;;;;;;14.80;84.46;99135.50;10384400;28;20129;-79
2024/01/17 21:56:36;;;;;;;0.85;0.75;;;;;;;13.21;86.67;99141.53;10389112;28;20083;-80
2024/01/17 22:01:37;;;;;;;0.00;0.00;;;;;;;14.87;83.51;99138.84;10382249;28;20038;-79
2024/01/17 22:06:39;;;;;;;0.57;0.50;;;;;;;12.82;85.98;99151.47;10402297;28;20463;-80
2024/01/17 22:11:41;;;;;;;0.00;0.00;;;;;;;14.56;83.64;99150.63;10388309;28;20410;-80
2024/01/17 22:16:43;;;;;;;0.00;0.00;;;;;;;14.38;82.75;99161.31;10412251;28;20408;-79
2024/01/17 22:21:44;;;;;;;0.00;0.00;;;;;;;13.66;83.81;99176.28;10402464;28;20128;-79
2024/01/17 22:26:46;;;;;;;0.32;0.32;;;;;;;10.47;94.16;99175.28;10411747;28;20173;-81
2024/01/17 22:31:48;;;;;;;0.00;0.00;;;;;;;9.64;97.35;99181.25;10394099;28;20053;-81
2024/01/17 22:36:50;;;;;;;0.00;0.00;;;;;;;13.23;91.53;99185.44;10426086;28;20449;-81
2024/01/17 22:41:52;;;;;;;0.70;0.70;;;;;;;12.06;93.76;99186.63;10417335;28;20272;-80
2024/01/17 22:46:53;;;;;;;0.13;0.13;;;;;;;12.25;92.47;99201.09;10364168;28;20049;-80
2024/01/17 22:51:55;;;;;;;0.65;0.65;;;;;;;12.36;93.21;99194.13;10370339;28;20056;-80
2024/01/17 22:56:57;;;;;;;0.17;0.17;;;;;;;12.43;91.60;99203.53;10387716;28;20420;-79
2024/01/17 23:01:58;;;;;;;0.00;0.00;;;;;;;12.60;90.73;99213.72;10385994;28;20347;-80
2024/01/17 23:07:00;;;;;;;0.00;0.00;;;;;;;11.80;91.94;99209.16;10380850;28;20049;-80
2024/01/17 23:12:02;;;;;;;0.00;0.00;;;;;;;12.24;91.89;99215.75;10356533;28;20054;-80
2024/01/17 23:17:04;;;;;;;0.00;0.00;;;;;;;12.57;92.58;99226.63;10369980;28;20045;-80
2024/01/17 23:22:06;;;;;;;0.38;0.38;;;;;;;11.26;95.77;99259.25;10354182;28;20058;-79